createdAt,value
2022-10-05T00:01:19.646Z,7.20
2022-10-05T00:03:46.088Z,7.20
2022-10-05T00:06:12.503Z,7.20
2022-10-05T00:08:38.902Z,7.10
2022-10-05T00:11:05.294Z,7.10
2022-10-05T00:13:31.692Z,7.10
2022-10-05T00:15:58.089Z,7.10
2022-10-05T00:18:24.464Z,7.10
2022-10-05T00:20:50.857Z,7.10
2022-10-05T00:23:17.276Z,7.10
2022-10-05T00:25:43.674Z,7.10
2022-10-05T00:28:10.073Z,7.00
2022-10-05T00:30:36.526Z,7.10
2022-10-05T00:33:02.922Z,7.00
2022-10-05T00:35:29.512Z,7.00
2022-10-05T00:37:56.016Z,7.00
2022-10-05T00:40:22.404Z,7.00
2022-10-05T00:42:48.833Z,6.90
2022-10-05T00:45:15.248Z,6.90
2022-10-05T00:47:41.630Z,6.90
2022-10-05T00:50:08.056Z,6.80
2022-10-05T00:52:34.468Z,6.80
2022-10-05T00:55:00.881Z,6.80
2022-10-05T00:57:27.250Z,6.80
2022-10-05T00:59:53.662Z,6.80
2022-10-05T01:02:20.117Z,6.80
2022-10-05T01:04:46.567Z,6.80
2022-10-05T01:07:12.982Z,6.80
2022-10-05T01:09:39.366Z,6.80
2022-10-05T01:12:05.753Z,6.80
2022-10-05T01:14:32.127Z,6.80
2022-10-05T01:16:58.594Z,6.70
2022-10-05T01:19:24.990Z,6.70
2022-10-05T01:21:51.398Z,6.70
2022-10-05T01:24:17.773Z,6.70
2022-10-05T01:26:44.546Z,6.70
2022-10-05T01:29:11.164Z,6.70
2022-10-05T01:31:37.641Z,6.70
2022-10-05T01:34:07.836Z,6.70
2022-10-05T01:36:37.024Z,6.70
2022-10-05T01:39:03.415Z,6.70
2022-10-05T01:41:29.788Z,6.70
2022-10-05T01:43:56.188Z,6.60
2022-10-05T01:46:22.682Z,6.60
2022-10-05T01:48:49.149Z,6.60
2022-10-05T01:51:15.531Z,6.60
2022-10-05T01:53:41.930Z,6.60
2022-10-05T01:56:08.321Z,6.60
2022-10-05T01:58:34.829Z,6.60
2022-10-05T02:01:01.274Z,6.60
2022-10-05T02:03:27.720Z,6.60
2022-10-05T02:05:54.112Z,6.60
2022-10-05T02:08:20.514Z,6.60
2022-10-05T02:10:46.899Z,6.60
2022-10-05T02:13:13.318Z,6.60
2022-10-05T02:15:39.760Z,6.60
2022-10-05T02:18:06.289Z,6.70
2022-10-05T02:20:32.686Z,6.70
2022-10-05T02:22:59.076Z,6.70
2022-10-05T02:25:25.450Z,6.70
2022-10-05T02:27:51.867Z,6.70
2022-10-05T02:30:18.252Z,6.70
2022-10-05T02:32:44.645Z,6.80
2022-10-05T02:35:11.126Z,6.80
2022-10-05T02:37:37.507Z,6.70
2022-10-05T02:40:03.916Z,6.70
2022-10-05T02:42:30.303Z,6.70
2022-10-05T02:44:56.693Z,6.70
2022-10-05T02:47:23.112Z,6.60
2022-10-05T02:49:49.648Z,6.60
2022-10-05T02:52:16.048Z,6.60
2022-10-05T02:54:42.443Z,6.60
2022-10-05T02:57:08.830Z,6.60
2022-10-05T02:59:35.231Z,6.60
2022-10-05T03:02:01.664Z,6.60
2022-10-05T03:04:28.094Z,6.50
2022-10-05T03:06:54.490Z,6.60
2022-10-05T03:09:20.898Z,6.50
2022-10-05T03:11:47.284Z,6.50
2022-10-05T03:14:13.706Z,6.50
2022-10-05T03:16:40.088Z,6.50
2022-10-05T03:19:06.468Z,6.40
2022-10-05T03:21:32.864Z,6.40
2022-10-05T03:23:59.290Z,6.40
2022-10-05T03:26:25.702Z,6.40
2022-10-05T03:28:52.075Z,6.30
2022-10-05T03:31:18.525Z,6.30
2022-10-05T03:33:44.968Z,6.30
2022-10-05T03:36:11.373Z,6.30
2022-10-05T03:38:37.764Z,6.30
2022-10-05T03:41:04.160Z,6.30
2022-10-05T03:43:30.542Z,6.20
2022-10-05T03:45:56.981Z,6.20
2022-10-05T03:48:23.397Z,6.20
2022-10-05T03:50:49.821Z,6.20
2022-10-05T03:53:16.201Z,6.20
2022-10-05T03:55:42.625Z,6.10
2022-10-05T03:58:09.007Z,6.20
2022-10-05T04:00:35.414Z,6.10
2022-10-05T04:03:01.871Z,6.10
2022-10-05T04:05:28.299Z,6.10
2022-10-05T04:07:54.743Z,6.10
2022-10-05T04:10:21.125Z,6.10
2022-10-05T04:12:47.532Z,6.10
2022-10-05T04:15:18.001Z,6.10
2022-10-05T04:17:45.358Z,6.10
2022-10-05T04:20:11.755Z,6.00
2022-10-05T04:22:38.188Z,6.00
2022-10-05T04:25:04.593Z,6.00
2022-10-05T04:27:30.998Z,6.10
2022-10-05T04:29:57.387Z,6.10
2022-10-05T04:32:23.796Z,6.00
2022-10-05T04:34:50.173Z,6.00
2022-10-05T04:37:16.583Z,6.00
2022-10-05T04:39:42.958Z,6.00
2022-10-05T04:42:09.394Z,6.00
2022-10-05T04:44:35.777Z,6.00
2022-10-05T04:47:02.229Z,6.10
2022-10-05T04:49:28.676Z,6.10
2022-10-05T04:51:55.067Z,6.10
2022-10-05T04:54:21.454Z,6.10
2022-10-05T04:56:48.018Z,6.10
2022-10-05T04:59:14.742Z,6.10
2022-10-05T05:01:41.150Z,6.10
2022-10-05T05:04:07.568Z,6.10
2022-10-05T05:06:33.972Z,6.10
2022-10-05T05:09:00.365Z,6.10
2022-10-05T05:11:26.739Z,6.20
2022-10-05T05:13:53.211Z,6.20
2022-10-05T05:16:19.647Z,6.20
2022-10-05T05:18:46.077Z,6.20
2022-10-05T05:21:12.464Z,6.20
2022-10-05T05:23:38.859Z,6.30
2022-10-05T05:26:05.234Z,6.30
2022-10-05T05:28:31.765Z,6.30
2022-10-05T05:30:58.270Z,6.30
2022-10-05T05:33:24.730Z,6.40
2022-10-05T05:35:51.117Z,6.50
2022-10-05T05:38:17.509Z,6.50
2022-10-05T05:40:43.884Z,6.50
2022-10-05T05:43:10.333Z,6.60
2022-10-05T05:45:36.733Z,6.60
2022-10-05T05:48:03.115Z,6.70
2022-10-05T05:50:29.531Z,6.80
2022-10-05T05:52:55.906Z,6.80
2022-10-05T05:55:24.402Z,6.90
2022-10-05T05:57:54.094Z,7.00
2022-10-05T06:00:20.514Z,7.10
2022-10-05T06:02:46.991Z,7.20
2022-10-05T06:05:13.587Z,7.20
2022-10-05T06:07:39.965Z,7.30
2022-10-05T06:10:06.350Z,7.40
2022-10-05T06:12:32.777Z,7.50
2022-10-05T06:14:59.157Z,7.60
2022-10-05T06:17:25.546Z,7.70
2022-10-05T06:19:51.947Z,7.70
2022-10-05T06:22:18.350Z,7.90
2022-10-05T06:24:44.735Z,7.90
2022-10-05T06:27:11.144Z,8.00
2022-10-05T06:29:37.528Z,8.10
2022-10-05T06:32:03.979Z,8.20
2022-10-05T06:34:30.402Z,8.30
2022-10-05T06:36:57.005Z,8.40
2022-10-05T06:39:23.415Z,8.50
2022-10-05T06:41:49.822Z,8.60
2022-10-05T06:44:16.229Z,8.70
2022-10-05T06:46:42.655Z,8.90
2022-10-05T06:49:09.060Z,9.00
2022-10-05T06:51:35.572Z,9.10
2022-10-05T06:54:01.970Z,9.20
2022-10-05T06:56:28.361Z,9.30
2022-10-05T06:58:54.791Z,9.40
2022-10-05T07:01:21.217Z,9.50
2022-10-05T07:03:47.710Z,9.60
2022-10-05T07:06:14.092Z,9.70
2022-10-05T07:08:40.483Z,9.90
2022-10-05T07:11:06.866Z,10.00
2022-10-05T07:13:33.311Z,10.10
2022-10-05T07:15:59.721Z,10.30
2022-10-05T07:18:26.167Z,10.40
2022-10-05T07:20:52.574Z,10.60
2022-10-05T07:23:18.965Z,10.70
2022-10-05T07:25:45.347Z,10.90
2022-10-05T07:28:11.757Z,11.10
2022-10-05T07:30:38.262Z,11.20
2022-10-05T07:33:04.693Z,11.40
2022-10-05T07:35:31.071Z,11.60
2022-10-05T07:37:57.465Z,11.80
2022-10-05T07:40:23.859Z,12.00
2022-10-05T07:42:52.342Z,12.10
2022-10-05T07:45:19.071Z,12.30
2022-10-05T07:47:45.459Z,12.40
2022-10-05T07:50:11.870Z,12.60
2022-10-05T07:52:38.265Z,12.70
2022-10-05T07:55:04.677Z,12.80
2022-10-05T07:57:31.078Z,13.00
2022-10-05T07:59:57.690Z,13.10
2022-10-05T08:02:24.173Z,13.20
2022-10-05T08:04:50.693Z,13.30
2022-10-05T08:07:17.129Z,13.50
2022-10-05T08:09:43.563Z,13.50
2022-10-05T08:12:10.740Z,13.60
2022-10-05T08:14:37.140Z,13.70
2022-10-05T08:17:03.519Z,13.80
2022-10-05T08:19:29.907Z,13.90
2022-10-05T08:21:56.323Z,14.00
2022-10-05T08:24:22.729Z,14.10
2022-10-05T08:26:49.112Z,14.20
2022-10-05T08:29:15.505Z,14.30
2022-10-05T08:31:41.887Z,14.40
2022-10-05T08:34:08.281Z,14.50
2022-10-05T08:36:34.681Z,14.70
2022-10-05T08:39:01.058Z,14.80
2022-10-05T08:41:27.453Z,14.90
2022-10-05T08:43:53.827Z,15.00
2022-10-05T08:46:20.253Z,15.20
2022-10-05T08:48:46.651Z,15.30
2022-10-05T08:51:13.068Z,15.40
2022-10-05T08:53:39.462Z,15.50
2022-10-05T08:56:05.907Z,15.60
2022-10-05T08:58:32.278Z,15.70
2022-10-05T09:00:58.733Z,15.80
2022-10-05T09:03:25.194Z,16.00
2022-10-05T09:05:51.598Z,16.10
2022-10-05T09:08:17.970Z,16.30
2022-10-05T09:10:44.396Z,16.50
2022-10-05T09:13:10.786Z,16.60
2022-10-05T09:15:37.240Z,16.70
2022-10-05T09:18:03.628Z,16.80
2022-10-05T09:20:30.021Z,17.00
2022-10-05T09:22:56.443Z,17.10
2022-10-05T09:25:22.926Z,17.20
2022-10-05T09:27:49.307Z,17.40
2022-10-05T09:30:15.684Z,17.60
2022-10-05T09:32:42.097Z,17.80
2022-10-05T09:35:08.474Z,18.00
2022-10-05T09:37:34.929Z,18.20
2022-10-05T09:40:02.384Z,18.30
2022-10-05T09:42:28.797Z,18.50
2022-10-05T09:44:55.182Z,18.60
2022-10-05T09:47:21.592Z,18.60
2022-10-05T09:49:47.983Z,18.70
2022-10-05T09:52:18.775Z,18.70
2022-10-05T09:54:45.529Z,18.80
2022-10-05T09:57:11.968Z,18.80
2022-10-05T09:59:38.357Z,18.90
2022-10-05T10:02:04.787Z,18.90
2022-10-05T10:04:31.235Z,19.00
2022-10-05T10:06:57.835Z,19.00
2022-10-05T10:09:24.314Z,19.10
2022-10-05T10:11:50.732Z,19.20
2022-10-05T10:14:17.164Z,19.20
2022-10-05T10:16:43.550Z,19.30
2022-10-05T10:19:09.982Z,19.40
2022-10-05T10:21:36.349Z,19.40
2022-10-05T10:24:02.759Z,19.50
2022-10-05T10:26:29.137Z,19.60
2022-10-05T10:28:55.557Z,19.70
2022-10-05T10:31:21.952Z,19.90
2022-10-05T10:33:48.422Z,20.00
2022-10-05T10:36:14.793Z,20.00
2022-10-05T10:38:41.198Z,20.10
2022-10-05T10:41:07.596Z,20.30
2022-10-05T10:43:34.032Z,20.40
2022-10-05T10:46:00.459Z,20.50
2022-10-05T10:48:26.909Z,20.50
2022-10-05T10:50:53.296Z,20.60
2022-10-05T10:53:19.698Z,20.70
2022-10-05T10:55:46.084Z,20.80
2022-10-05T10:58:15.867Z,20.90
2022-10-05T11:00:42.686Z,20.90
2022-10-05T11:03:09.145Z,21.00
2022-10-05T11:05:35.595Z,21.10
2022-10-05T11:08:01.982Z,21.20
2022-10-05T11:10:28.392Z,21.30
2022-10-05T11:12:54.837Z,21.40
2022-10-05T11:15:21.252Z,21.40
2022-10-05T11:17:47.655Z,21.40
2022-10-05T11:20:14.082Z,21.50
2022-10-05T11:22:40.461Z,21.60
2022-10-05T11:25:06.889Z,21.70
2022-10-05T11:27:33.260Z,21.70
2022-10-05T11:29:59.694Z,21.80
2022-10-05T11:32:26.088Z,22.00
2022-10-05T11:34:52.481Z,22.10
2022-10-05T11:37:18.921Z,22.20
2022-10-05T11:39:45.312Z,22.30
2022-10-05T11:42:11.685Z,22.30
2022-10-05T11:44:38.078Z,22.40
2022-10-05T11:47:04.496Z,22.50
2022-10-05T11:49:30.879Z,22.60
2022-10-05T11:51:57.298Z,22.70
2022-10-05T11:54:23.675Z,22.70
2022-10-05T11:56:52.328Z,22.80
2022-10-05T11:59:21.024Z,22.80
2022-10-05T12:01:47.416Z,22.80
2022-10-05T12:04:13.884Z,22.80
2022-10-05T12:06:40.314Z,22.90
2022-10-05T12:09:06.699Z,22.90
2022-10-05T12:11:33.098Z,22.90
2022-10-05T12:13:59.495Z,23.10
2022-10-05T12:16:26.071Z,23.20
2022-10-05T12:18:52.466Z,23.30
2022-10-05T12:21:18.860Z,23.50
2022-10-05T12:23:45.236Z,23.60
2022-10-05T12:26:11.668Z,23.50
2022-10-05T12:28:38.045Z,23.60
2022-10-05T12:31:04.494Z,23.90
2022-10-05T12:33:30.969Z,24.10
2022-10-05T12:35:57.363Z,24.40
2022-10-05T12:38:23.819Z,24.80
2022-10-05T12:40:50.249Z,25.40
2022-10-05T12:43:16.642Z,25.90
2022-10-05T12:45:43.050Z,26.40
2022-10-05T12:48:09.489Z,26.70
2022-10-05T12:50:35.869Z,26.70
2022-10-05T12:53:02.270Z,26.70
2022-10-05T12:55:28.653Z,26.80
2022-10-05T12:57:55.054Z,26.90
2022-10-05T13:00:23.159Z,26.80
2022-10-05T13:02:49.935Z,26.90
2022-10-05T13:05:16.344Z,27.00
2022-10-05T13:07:42.738Z,27.00
2022-10-05T13:10:09.161Z,27.30
2022-10-05T13:12:35.557Z,27.80
2022-10-05T13:15:01.959Z,28.50
2022-10-05T13:17:28.358Z,28.80
2022-10-05T13:19:54.733Z,29.00
2022-10-05T13:22:21.122Z,29.30
2022-10-05T13:24:47.498Z,29.30
2022-10-05T13:27:13.904Z,29.30
2022-10-05T13:29:40.284Z,29.50
2022-10-05T13:32:06.686Z,29.20
2022-10-05T13:34:33.085Z,29.20
2022-10-05T13:36:59.465Z,29.30
2022-10-05T13:39:25.872Z,29.30
2022-10-05T13:41:52.254Z,29.40
2022-10-05T13:44:18.656Z,29.60
2022-10-05T13:46:45.037Z,29.80
2022-10-05T13:49:11.451Z,30.00
2022-10-05T13:51:37.865Z,30.20
2022-10-05T13:54:04.297Z,30.30
2022-10-05T13:56:30.676Z,30.80
2022-10-05T13:58:57.078Z,31.40
2022-10-05T14:01:23.467Z,31.90
2022-10-05T14:03:50.036Z,32.00
2022-10-05T14:06:16.424Z,31.80
2022-10-05T14:08:42.817Z,31.90
2022-10-05T14:11:09.202Z,31.90
2022-10-05T14:13:35.610Z,31.90
2022-10-05T14:16:02.074Z,32.10
2022-10-05T14:18:28.544Z,32.10
2022-10-05T14:20:54.920Z,32.30
2022-10-05T14:23:22.455Z,32.20
2022-10-05T14:25:49.174Z,32.10
2022-10-05T14:28:15.601Z,31.60
2022-10-05T14:30:42.037Z,31.20
2022-10-05T14:33:08.435Z,30.60
2022-10-05T14:35:34.874Z,30.20
2022-10-05T14:38:01.261Z,30.10
2022-10-05T14:40:27.667Z,30.00
2022-10-05T14:42:54.038Z,29.80
2022-10-05T14:45:20.439Z,29.80
2022-10-05T14:47:46.835Z,29.50
2022-10-05T14:50:13.239Z,29.20
2022-10-05T14:52:39.621Z,29.00
2022-10-05T14:55:06.043Z,28.90
2022-10-05T14:57:32.429Z,28.90
2022-10-05T14:59:58.839Z,28.80
2022-10-05T15:02:25.272Z,28.50
2022-10-05T15:04:51.754Z,28.00
2022-10-05T15:07:18.139Z,27.70
2022-10-05T15:09:44.542Z,27.50
2022-10-05T15:12:10.928Z,27.00
2022-10-05T15:14:37.429Z,26.70
2022-10-05T15:17:03.902Z,26.80
2022-10-05T15:19:30.393Z,27.10
2022-10-05T15:21:56.900Z,27.50
2022-10-05T15:24:23.304Z,27.70
2022-10-05T15:26:49.702Z,28.10
2022-10-05T15:29:16.129Z,28.30
2022-10-05T15:31:42.531Z,28.30
2022-10-05T15:34:08.917Z,28.10
2022-10-05T15:36:35.321Z,27.80
2022-10-05T15:39:01.715Z,27.40
2022-10-05T15:41:28.108Z,27.30
2022-10-05T15:43:54.489Z,27.40
2022-10-05T15:46:20.941Z,27.70
2022-10-05T15:48:47.364Z,28.00
2022-10-05T15:51:13.815Z,28.30
2022-10-05T15:53:40.191Z,29.20
2022-10-05T15:56:06.600Z,30.50
2022-10-05T15:58:33.002Z,31.40
2022-10-05T16:00:59.495Z,31.10
2022-10-05T16:03:25.922Z,30.50
2022-10-05T16:05:52.317Z,30.00
2022-10-05T16:08:18.727Z,29.40
2022-10-05T16:10:45.110Z,28.60
2022-10-05T16:13:11.513Z,27.40
2022-10-05T16:15:37.904Z,26.40
2022-10-05T16:18:04.306Z,25.70
2022-10-05T16:20:30.732Z,25.20
2022-10-05T16:22:57.136Z,25.30
2022-10-05T16:25:23.534Z,25.20
2022-10-05T16:27:49.997Z,25.00
2022-10-05T16:30:16.396Z,24.70
2022-10-05T16:32:42.797Z,24.40
2022-10-05T16:35:09.180Z,24.50
2022-10-05T16:37:35.630Z,25.00
2022-10-05T16:40:02.021Z,25.30
2022-10-05T16:42:28.426Z,25.00
2022-10-05T16:44:54.813Z,24.30
2022-10-05T16:47:25.161Z,23.50
2022-10-05T16:49:53.793Z,22.70
2022-10-05T16:52:20.218Z,22.00
2022-10-05T16:54:48.066Z,21.40
2022-10-05T16:57:14.672Z,20.90
2022-10-05T16:59:41.055Z,20.50
2022-10-05T17:02:07.502Z,20.10
2022-10-05T17:04:34.004Z,19.80
2022-10-05T17:07:00.383Z,19.50
2022-10-05T17:09:26.773Z,19.20
2022-10-05T17:11:53.150Z,18.90
2022-10-05T17:14:19.555Z,18.60
2022-10-05T17:16:45.915Z,18.40
2022-10-05T17:19:12.363Z,18.20
2022-10-05T17:21:38.752Z,18.00
2022-10-05T17:24:05.155Z,17.80
2022-10-05T17:26:31.524Z,17.60
2022-10-05T17:28:57.911Z,17.50
2022-10-05T17:31:24.338Z,17.30
2022-10-05T17:33:50.746Z,17.20
2022-10-05T17:36:17.128Z,17.00
2022-10-05T17:38:43.543Z,16.90
2022-10-05T17:41:09.911Z,16.80
2022-10-05T17:43:36.289Z,16.70
2022-10-05T17:46:02.791Z,16.60
2022-10-05T17:48:29.196Z,16.50
2022-10-05T17:50:55.590Z,16.40
2022-10-05T17:53:21.984Z,16.30
2022-10-05T17:55:48.441Z,16.30
2022-10-05T17:58:14.825Z,16.20
2022-10-05T18:00:41.235Z,16.10
2022-10-05T18:03:07.687Z,16.00
2022-10-05T18:05:34.131Z,15.90
2022-10-05T18:08:00.536Z,15.80
2022-10-05T18:10:26.941Z,15.80
2022-10-05T18:12:53.344Z,15.80
2022-10-05T18:15:19.725Z,15.80
2022-10-05T18:17:46.126Z,15.80
2022-10-05T18:20:12.520Z,15.80
2022-10-05T18:22:38.925Z,15.70
2022-10-05T18:25:05.320Z,15.70
2022-10-05T18:27:31.759Z,15.60
2022-10-05T18:29:58.161Z,15.50
2022-10-05T18:32:24.567Z,15.40
2022-10-05T18:34:50.953Z,15.30
2022-10-05T18:39:51.430Z,15.00
2022-10-05T18:42:17.843Z,14.80
2022-10-05T18:44:44.217Z,14.80
2022-10-05T18:47:10.630Z,14.70
2022-10-05T18:49:37.024Z,14.70
2022-10-05T18:52:03.417Z,14.70
2022-10-05T18:54:29.793Z,14.70
2022-10-05T18:56:56.199Z,14.70
2022-10-05T18:59:22.576Z,14.70
2022-10-05T19:01:49.078Z,14.70
2022-10-05T19:04:15.546Z,14.70
2022-10-05T19:06:41.958Z,14.70
2022-10-05T19:09:08.353Z,14.60
2022-10-05T19:11:34.745Z,14.60
2022-10-05T19:14:01.161Z,14.50
2022-10-05T19:16:27.678Z,14.40
2022-10-05T19:18:54.217Z,14.30
2022-10-05T19:21:20.603Z,14.30
2022-10-05T19:23:47.014Z,14.20
2022-10-05T19:26:13.391Z,14.30
2022-10-05T19:28:39.859Z,14.20
2022-10-05T19:31:06.548Z,14.20
2022-10-05T19:33:32.986Z,14.20
2022-10-05T19:35:59.380Z,14.40
2022-10-05T19:38:25.784Z,14.50
2022-10-05T19:40:52.177Z,14.60
2022-10-05T19:43:18.598Z,14.60
2022-10-05T19:45:44.986Z,14.70
2022-10-05T19:48:11.392Z,14.70
2022-10-05T19:50:37.770Z,14.70
2022-10-05T19:53:04.162Z,14.60
2022-10-05T19:55:30.560Z,14.50
2022-10-05T19:57:56.950Z,14.40
2022-10-05T20:00:23.350Z,14.30
2022-10-05T20:02:49.776Z,14.20
2022-10-05T20:05:16.178Z,14.20
2022-10-05T20:07:42.572Z,14.20
2022-10-05T20:10:08.968Z,14.10
2022-10-05T20:12:35.348Z,14.00
2022-10-05T20:15:01.745Z,13.90
2022-10-05T20:17:28.168Z,13.80
2022-10-05T20:19:54.645Z,13.70
2022-10-05T20:22:21.303Z,13.60
2022-10-05T20:24:47.821Z,13.50
2022-10-05T20:27:16.129Z,13.40
2022-10-05T20:29:42.850Z,13.30
2022-10-05T20:32:09.243Z,13.30
2022-10-05T20:34:35.645Z,13.20
2022-10-05T20:37:02.022Z,13.20
2022-10-05T20:39:28.429Z,13.10
2022-10-05T20:41:54.849Z,13.10
2022-10-05T20:44:21.225Z,13.00
2022-10-05T20:46:47.706Z,13.00
2022-10-05T20:49:14.163Z,13.10
2022-10-05T20:51:40.562Z,13.10
2022-10-05T20:54:06.989Z,13.10
2022-10-05T20:56:33.385Z,13.10
2022-10-05T20:58:59.757Z,13.20
2022-10-05T21:01:26.263Z,13.30
2022-10-05T21:03:52.727Z,13.30
2022-10-05T21:06:19.119Z,13.40
2022-10-05T21:08:45.510Z,13.60
2022-10-05T21:11:11.924Z,13.70
2022-10-05T21:13:38.315Z,13.90
2022-10-05T21:16:04.762Z,14.10
2022-10-05T21:18:31.437Z,14.20
2022-10-05T21:21:02.082Z,14.30
2022-10-05T21:23:28.792Z,14.40
2022-10-05T21:25:55.177Z,14.40
2022-10-05T21:28:21.582Z,14.40
2022-10-05T21:30:48.043Z,14.50
2022-10-05T21:33:14.427Z,14.40
2022-10-05T21:35:40.961Z,14.40
2022-10-05T21:38:07.396Z,14.40
2022-10-05T21:40:33.770Z,14.30
2022-10-05T21:43:00.205Z,14.20
2022-10-05T21:45:26.685Z,14.10
2022-10-05T21:47:53.189Z,14.00
2022-10-05T21:50:19.563Z,13.90
2022-10-05T21:52:45.955Z,13.90
2022-10-05T21:55:12.330Z,13.80
2022-10-05T21:57:38.709Z,13.70
2022-10-05T22:00:05.091Z,13.60
2022-10-05T22:02:31.490Z,13.50
2022-10-05T22:04:57.881Z,13.30
2022-10-05T22:07:24.286Z,13.10
2022-10-05T22:09:50.665Z,13.00
2022-10-05T22:12:17.051Z,12.90
2022-10-05T22:14:43.439Z,12.90
2022-10-05T22:17:09.835Z,12.90
2022-10-05T22:19:36.258Z,12.90
2022-10-05T22:22:02.659Z,12.90
2022-10-05T22:24:29.057Z,12.80
2022-10-05T22:26:55.466Z,12.70
2022-10-05T22:29:21.892Z,12.70
2022-10-05T22:31:48.390Z,12.70
2022-10-05T22:34:14.854Z,12.70
2022-10-05T22:36:41.242Z,12.70
2022-10-05T22:39:07.654Z,12.60
2022-10-05T22:41:34.042Z,12.60
2022-10-05T22:44:00.458Z,12.60
2022-10-05T22:46:26.868Z,12.50
2022-10-05T22:48:53.409Z,12.50
2022-10-05T22:51:19.794Z,12.40
2022-10-05T22:53:46.217Z,12.40
2022-10-05T22:56:12.609Z,12.40
2022-10-05T22:58:39.011Z,12.50
2022-10-05T23:01:05.467Z,12.50
2022-10-05T23:03:31.925Z,12.50
2022-10-05T23:05:58.297Z,12.60
2022-10-05T23:08:24.894Z,12.50
2022-10-05T23:10:51.568Z,12.50
2022-10-05T23:13:18.034Z,12.40
2022-10-05T23:15:44.413Z,12.30
2022-10-05T23:18:10.816Z,12.30
2022-10-05T23:20:37.205Z,12.20
2022-10-05T23:23:03.607Z,12.10
2022-10-05T23:25:29.985Z,12.10
2022-10-05T23:27:56.409Z,12.10
2022-10-05T23:30:22.829Z,12.00
2022-10-05T23:32:49.217Z,12.00
2022-10-05T23:35:15.618Z,11.80
2022-10-05T23:37:41.997Z,11.70
2022-10-05T23:40:08.397Z,11.60
2022-10-05T23:42:34.786Z,11.50
2022-10-05T23:45:01.181Z,11.40
2022-10-05T23:47:27.577Z,11.40
2022-10-05T23:49:53.984Z,11.40
2022-10-05T23:52:20.363Z,11.50
2022-10-05T23:54:46.759Z,11.60
2022-10-05T23:57:13.143Z,11.70
2022-10-05T23:59:39.554Z,11.80
